sensor_id;sensor_type;location;lat;lon;timestamp;temperature;humidity
8882;DHT22;4477;48.736;9.176;2022-10-03T00:00:09;10.60;99.90
8882;DHT22;4477;48.736;9.176;2022-10-03T00:06:00;10.70;99.90
8882;DHT22;4477;48.736;9.176;2022-10-03T00:08:41;10.70;99.90
8882;DHT22;4477;48.736;9.176;2022-10-03T00:11:16;10.60;99.90
8882;DHT22;4477;48.736;9.176;2022-10-03T00:13:55;10.50;99.90
8882;DHT22;4477;48.736;9.176;2022-10-03T00:16:28;10.40;99.90
8882;DHT22;4477;48.736;9.176;2022-10-03T00:19:08;10.30;99.90
8882;DHT22;4477;48.736;9.176;2022-10-03T00:21:50;10.20;99.90
8882;DHT22;4477;48.736;9.176;2022-10-03T00:24:27;10.20;99.90
8882;DHT22;4477;48.736;9.176;2022-10-03T00:27:00;10.20;99.90
8882;DHT22;4477;48.736;9.176;2022-10-03T00:29:42;10.10;99.90
8882;DHT22;4477;48.736;9.176;2022-10-03T00:32:21;10.00;99.90
8882;DHT22;4477;48.736;9.176;2022-10-03T00:35:04;9.90;99.90
8882;DHT22;4477;48.736;9.176;2022-10-03T00:37:36;9.90;99.90
8882;DHT22;4477;48.736;9.176;2022-10-03T00:40:34;10.00;99.90
8882;DHT22;4477;48.736;9.176;2022-10-03T00:46:23;10.10;99.90
8882;DHT22;4477;48.736;9.176;2022-10-03T00:52:18;10.30;99.90
8882;DHT22;4477;48.736;9.176;2022-10-03T00:54:58;10.40;99.90
8882;DHT22;4477;48.736;9.176;2022-10-03T00:57:52;10.40;99.90
8882;DHT22;4477;48.736;9.176;2022-10-03T01:00:26;10.50;99.90
8882;DHT22;4477;48.736;9.176;2022-10-03T01:03:28;10.50;99.90
8882;DHT22;4477;48.736;9.176;2022-10-03T01:06:18;10.50;99.90
8882;DHT22;4477;48.736;9.176;2022-10-03T01:09:02;10.50;99.90
8882;DHT22;4477;48.736;9.176;2022-10-03T01:11:40;10.50;99.90
8882;DHT22;4477;48.736;9.176;2022-10-03T01:14:22;10.50;99.90
8882;DHT22;4477;48.736;9.176;2022-10-03T01:17:02;10.50;99.90
8882;DHT22;4477;48.736;9.176;2022-10-03T01:19:51;10.50;99.90
8882;DHT22;4477;48.736;9.176;2022-10-03T01:22:41;10.60;99.90
8882;DHT22;4477;48.736;9.176;2022-10-03T01:25:18;10.60;99.90
8882;DHT22;4477;48.736;9.176;2022-10-03T01:27:54;10.50;99.90
8882;DHT22;4477;48.736;9.176;2022-10-03T01:30:43;10.50;99.90
8882;DHT22;4477;48.736;9.176;2022-10-03T01:33:17;10.50;99.90
8882;DHT22;4477;48.736;9.176;2022-10-03T01:35:53;10.40;99.90
8882;DHT22;4477;48.736;9.176;2022-10-03T01:38:26;10.40;99.90
8882;DHT22;4477;48.736;9.176;2022-10-03T01:40:57;10.30;99.90
8882;DHT22;4477;48.736;9.176;2022-10-03T01:43:33;10.20;99.90
8882;DHT22;4477;48.736;9.176;2022-10-03T01:46:11;10.10;99.90
8882;DHT22;4477;48.736;9.176;2022-10-03T01:48:48;9.90;99.90
8882;DHT22;4477;48.736;9.176;2022-10-03T01:51:21;9.80;99.90
8882;DHT22;4477;48.736;9.176;2022-10-03T01:54:00;9.80;99.90
8882;DHT22;4477;48.736;9.176;2022-10-03T01:56:32;9.90;99.90
8882;DHT22;4477;48.736;9.176;2022-10-03T01:59:04;10.00;99.90
8882;DHT22;4477;48.736;9.176;2022-10-03T02:01:43;9.90;99.90
8882;DHT22;4477;48.736;9.176;2022-10-03T02:04:17;10.00;99.90
8882;DHT22;4477;48.736;9.176;2022-10-03T02:06:52;10.00;99.90
8882;DHT22;4477;48.736;9.176;2022-10-03T02:09:28;10.10;99.90
8882;DHT22;4477;48.736;9.176;2022-10-03T02:12:07;10.20;99.90
8882;DHT22;4477;48.736;9.176;2022-10-03T02:14:44;10.30;99.90
8882;DHT22;4477;48.736;9.176;2022-10-03T02:17:25;10.40;99.90
8882;DHT22;4477;48.736;9.176;2022-10-03T02:20:00;10.40;99.90
8882;DHT22;4477;48.736;9.176;2022-10-03T02:22:34;10.40;99.90
8882;DHT22;4477;48.736;9.176;2022-10-03T02:25:17;10.40;99.90
8882;DHT22;4477;48.736;9.176;2022-10-03T02:31:38;10.50;99.90
8882;DHT22;4477;48.736;9.176;2022-10-03T02:34:24;10.50;99.90
8882;DHT22;4477;48.736;9.176;2022-10-03T02:37:19;10.50;99.90
8882;DHT22;4477;48.736;9.176;2022-10-03T02:40:05;10.50;99.90
8882;DHT22;4477;48.736;9.176;2022-10-03T02:55:43;10.30;99.90
8882;DHT22;4477;48.736;9.176;2022-10-03T02:58:30;10.20;99.90
8882;DHT22;4477;48.736;9.176;2022-10-03T03:01:26;10.20;99.90
8882;DHT22;4477;48.736;9.176;2022-10-03T03:04:16;10.10;99.90
8882;DHT22;4477;48.736;9.176;2022-10-03T03:07:01;10.00;99.90
8882;DHT22;4477;48.736;9.176;2022-10-03T03:09:51;9.70;99.90
8882;DHT22;4477;48.736;9.176;2022-10-03T03:12:44;9.50;99.90
8882;DHT22;4477;48.736;9.176;2022-10-03T03:15:56;9.20;99.90
8882;DHT22;4477;48.736;9.176;2022-10-03T03:18:33;9.10;99.90
8882;DHT22;4477;48.736;9.176;2022-10-03T03:21:18;9.00;99.90
8882;DHT22;4477;48.736;9.176;2022-10-03T03:24:16;8.90;99.90
8882;DHT22;4477;48.736;9.176;2022-10-03T03:27:03;8.70;99.90
8882;DHT22;4477;48.736;9.176;2022-10-03T03:29:39;8.60;99.90
8882;DHT22;4477;48.736;9.176;2022-10-03T03:32:14;8.40;99.90
8882;DHT22;4477;48.736;9.176;2022-10-03T03:34:47;8.30;99.90
8882;DHT22;4477;48.736;9.176;2022-10-03T03:37:21;8.30;99.90
8882;DHT22;4477;48.736;9.176;2022-10-03T03:40:11;8.30;99.90
8882;DHT22;4477;48.736;9.176;2022-10-03T03:42:56;8.20;99.90
8882;DHT22;4477;48.736;9.176;2022-10-03T03:48:35;8.30;99.90
8882;DHT22;4477;48.736;9.176;2022-10-03T03:51:21;8.20;99.90
8882;DHT22;4477;48.736;9.176;2022-10-03T03:54:05;8.20;99.90
8882;DHT22;4477;48.736;9.176;2022-10-03T03:56:54;8.30;99.90
8882;DHT22;4477;48.736;9.176;2022-10-03T04:02:12;8.20;99.90
8882;DHT22;4477;48.736;9.176;2022-10-03T04:04:56;8.30;99.90
8882;DHT22;4477;48.736;9.176;2022-10-03T04:07:32;8.30;99.90
8882;DHT22;4477;48.736;9.176;2022-10-03T04:10:27;8.30;99.90
8882;DHT22;4477;48.736;9.176;2022-10-03T04:13:17;8.40;99.90
8882;DHT22;4477;48.736;9.176;2022-10-03T04:16:03;8.40;99.90
8882;DHT22;4477;48.736;9.176;2022-10-03T04:18:47;8.40;99.90
8882;DHT22;4477;48.736;9.176;2022-10-03T04:21:45;8.30;99.90
8882;DHT22;4477;48.736;9.176;2022-10-03T04:27:46;8.10;99.90
8882;DHT22;4477;48.736;9.176;2022-10-03T04:30:26;8.20;99.90
8882;DHT22;4477;48.736;9.176;2022-10-03T04:33:09;8.20;99.90
8882;DHT22;4477;48.736;9.176;2022-10-03T04:36:04;8.20;99.90
8882;DHT22;4477;48.736;9.176;2022-10-03T04:38:43;8.20;99.90
8882;DHT22;4477;48.736;9.176;2022-10-03T04:41:23;8.10;99.90
8882;DHT22;4477;48.736;9.176;2022-10-03T04:43:57;8.00;99.90
8882;DHT22;4477;48.736;9.176;2022-10-03T04:46:31;7.90;99.90
8882;DHT22;4477;48.736;9.176;2022-10-03T04:51:48;8.20;99.90
8882;DHT22;4477;48.736;9.176;2022-10-03T05:02:10;9.00;99.90
8882;DHT22;4477;48.736;9.176;2022-10-03T05:07:24;9.10;99.90
8882;DHT22;4477;48.736;9.176;2022-10-03T05:09:57;9.20;99.90
8882;DHT22;4477;48.736;9.176;2022-10-03T05:17:45;9.30;99.90
8882;DHT22;4477;48.736;9.176;2022-10-03T05:20:23;9.40;99.90
8882;DHT22;4477;48.736;9.176;2022-10-03T05:22:57;9.40;99.90
8882;DHT22;4477;48.736;9.176;2022-10-03T05:25:36;9.50;99.90
8882;DHT22;4477;48.736;9.176;2022-10-03T05:28:16;9.50;99.90
8882;DHT22;4477;48.736;9.176;2022-10-03T05:30:52;9.50;99.90
8882;DHT22;4477;48.736;9.176;2022-10-03T05:33:36;9.60;99.90
8882;DHT22;4477;48.736;9.176;2022-10-03T05:36:20;9.60;99.90
8882;DHT22;4477;48.736;9.176;2022-10-03T05:39:26;9.70;99.90
8882;DHT22;4477;48.736;9.176;2022-10-03T05:41:59;9.70;99.90
8882;DHT22;4477;48.736;9.176;2022-10-03T05:44:39;9.70;99.90
8882;DHT22;4477;48.736;9.176;2022-10-03T05:47:10;9.80;99.90
8882;DHT22;4477;48.736;9.176;2022-10-03T05:53:11;9.90;99.90
8882;DHT22;4477;48.736;9.176;2022-10-03T05:55:48;9.90;99.90
8882;DHT22;4477;48.736;9.176;2022-10-03T05:58:50;9.90;99.90
8882;DHT22;4477;48.736;9.176;2022-10-03T06:04:49;9.90;99.90
8882;DHT22;4477;48.736;9.176;2022-10-03T06:07:28;10.00;99.90
8882;DHT22;4477;48.736;9.176;2022-10-03T06:10:23;9.90;99.90
8882;DHT22;4477;48.736;9.176;2022-10-03T06:13:09;9.90;99.90
8882;DHT22;4477;48.736;9.176;2022-10-03T06:15:53;9.90;99.90
8882;DHT22;4477;48.736;9.176;2022-10-03T06:30:43;10.00;99.90
8882;DHT22;4477;48.736;9.176;2022-10-03T06:33:47;10.10;99.90
8882;DHT22;4477;48.736;9.176;2022-10-03T06:36:26;10.10;99.90
8882;DHT22;4477;48.736;9.176;2022-10-03T06:45:44;10.30;99.90
8882;DHT22;4477;48.736;9.176;2022-10-03T06:51:24;10.40;99.90
8882;DHT22;4477;48.736;9.176;2022-10-03T06:54:22;10.50;99.90
8882;DHT22;4477;48.736;9.176;2022-10-03T06:57:18;10.60;99.90
8882;DHT22;4477;48.736;9.176;2022-10-03T07:00:02;10.80;99.90
8882;DHT22;4477;48.736;9.176;2022-10-03T07:02:49;10.80;99.90
8882;DHT22;4477;48.736;9.176;2022-10-03T07:05:52;10.80;99.90
8882;DHT22;4477;48.736;9.176;2022-10-03T07:18:41;10.70;99.90
8882;DHT22;4477;48.736;9.176;2022-10-03T07:24:36;10.70;99.90
8882;DHT22;4477;48.736;9.176;2022-10-03T07:27:20;10.70;99.90
8882;DHT22;4477;48.736;9.176;2022-10-03T07:29:57;10.60;99.90
8882;DHT22;4477;48.736;9.176;2022-10-03T07:35:49;10.50;99.90
8882;DHT22;4477;48.736;9.176;2022-10-03T07:38:55;10.50;99.90
8882;DHT22;4477;48.736;9.176;2022-10-03T07:41:52;10.60;99.90
8882;DHT22;4477;48.736;9.176;2022-10-03T07:44:48;10.60;99.90
8882;DHT22;4477;48.736;9.176;2022-10-03T07:47:56;10.70;99.90
8882;DHT22;4477;48.736;9.176;2022-10-03T07:50:48;10.60;99.90
8882;DHT22;4477;48.736;9.176;2022-10-03T07:53:47;10.70;99.90
8882;DHT22;4477;48.736;9.176;2022-10-03T07:59:46;10.70;99.90
8882;DHT22;4477;48.736;9.176;2022-10-03T08:02:40;10.80;99.90
8882;DHT22;4477;48.736;9.176;2022-10-03T08:05:22;11.00;99.90
8882;DHT22;4477;48.736;9.176;2022-10-03T08:08:07;11.10;99.90
8882;DHT22;4477;48.736;9.176;2022-10-03T08:11:04;11.00;99.90
8882;DHT22;4477;48.736;9.176;2022-10-03T08:13:44;11.00;99.90
8882;DHT22;4477;48.736;9.176;2022-10-03T08:16:28;11.10;99.90
8882;DHT22;4477;48.736;9.176;2022-10-03T08:19:29;11.20;99.90
8882;DHT22;4477;48.736;9.176;2022-10-03T08:22:22;11.20;99.90
8882;DHT22;4477;48.736;9.176;2022-10-03T08:27:45;11.30;99.90
8882;DHT22;4477;48.736;9.176;2022-10-03T08:30:21;11.70;99.90
8882;DHT22;4477;48.736;9.176;2022-10-03T08:33:13;11.90;99.90
8882;DHT22;4477;48.736;9.176;2022-10-03T08:36:09;11.80;99.90
8882;DHT22;4477;48.736;9.176;2022-10-03T08:39:02;12.10;99.90
8882;DHT22;4477;48.736;9.176;2022-10-03T08:54:21;12.60;99.90
8882;DHT22;4477;48.736;9.176;2022-10-03T08:57:05;12.70;99.90
8882;DHT22;4477;48.736;9.176;2022-10-03T09:00:15;12.90;99.90
8882;DHT22;4477;48.736;9.176;2022-10-03T09:03:00;13.00;99.90
8882;DHT22;4477;48.736;9.176;2022-10-03T09:06:04;13.50;99.90
8882;DHT22;4477;48.736;9.176;2022-10-03T09:09:08;14.50;99.90
8882;DHT22;4477;48.736;9.176;2022-10-03T09:14:44;14.60;99.90
8882;DHT22;4477;48.736;9.176;2022-10-03T09:23:55;13.40;99.90
8882;DHT22;4477;48.736;9.176;2022-10-03T09:29:44;12.90;99.90
8882;DHT22;4477;48.736;9.176;2022-10-03T09:32:43;13.00;99.90
8882;DHT22;4477;48.736;9.176;2022-10-03T09:51:03;13.60;99.90
8882;DHT22;4477;48.736;9.176;2022-10-03T09:56:57;14.10;99.90
8882;DHT22;4477;48.736;9.176;2022-10-03T10:02:43;14.20;99.90
8882;DHT22;4477;48.736;9.176;2022-10-03T10:05:36;14.10;99.90
8882;DHT22;4477;48.736;9.176;2022-10-03T10:11:30;13.90;99.90
8882;DHT22;4477;48.736;9.176;2022-10-03T10:14:25;13.70;99.90
8882;DHT22;4477;48.736;9.176;2022-10-03T10:20:22;14.10;99.90
8882;DHT22;4477;48.736;9.176;2022-10-03T10:23:10;14.40;99.90
8882;DHT22;4477;48.736;9.176;2022-10-03T10:29:19;15.50;99.90
8882;DHT22;4477;48.736;9.176;2022-10-03T10:35:19;16.80;99.90
8882;DHT22;4477;48.736;9.176;2022-10-03T10:38:23;17.30;99.90
8882;DHT22;4477;48.736;9.176;2022-10-03T10:47:32;16.80;99.90
8882;DHT22;4477;48.736;9.176;2022-10-03T10:50:41;16.40;99.90
8882;DHT22;4477;48.736;9.176;2022-10-03T11:09:23;16.80;99.90
8882;DHT22;4477;48.736;9.176;2022-10-03T11:28:41;15.90;99.90
8882;DHT22;4477;48.736;9.176;2022-10-03T11:31:47;15.80;99.90
8882;DHT22;4477;48.736;9.176;2022-10-03T11:34:48;15.70;99.90
8882;DHT22;4477;48.736;9.176;2022-10-03T11:37:33;15.70;99.90
8882;DHT22;4477;48.736;9.176;2022-10-03T11:40:28;16.90;99.90
8882;DHT22;4477;48.736;9.176;2022-10-03T11:45:50;20.00;99.90
8882;DHT22;4477;48.736;9.176;2022-10-03T11:48:37;21.20;99.50
8882;DHT22;4477;48.736;9.176;2022-10-03T11:51:07;22.00;94.70
8882;DHT22;4477;48.736;9.176;2022-10-03T11:53:43;22.50;92.70
8882;DHT22;4477;48.736;9.176;2022-10-03T11:56:30;22.40;93.00
8882;DHT22;4477;48.736;9.176;2022-10-03T11:59:34;22.60;92.60
8882;DHT22;4477;48.736;9.176;2022-10-03T12:02:14;22.00;85.60
8882;DHT22;4477;48.736;9.176;2022-10-03T12:04:51;21.20;92.60
8882;DHT22;4477;48.736;9.176;2022-10-03T12:07:35;20.20;92.00
8882;DHT22;4477;48.736;9.176;2022-10-03T12:10:42;19.90;92.80
8882;DHT22;4477;48.736;9.176;2022-10-03T12:13:13;20.60;93.90
8882;DHT22;4477;48.736;9.176;2022-10-03T12:15:45;21.10;90.60
8882;DHT22;4477;48.736;9.176;2022-10-03T12:18:17;21.30;88.40
8882;DHT22;4477;48.736;9.176;2022-10-03T12:24:01;21.90;88.40
8882;DHT22;4477;48.736;9.176;2022-10-03T12:26:45;22.20;86.60
8882;DHT22;4477;48.736;9.176;2022-10-03T12:29:15;22.00;88.00
8882;DHT22;4477;48.736;9.176;2022-10-03T12:31:52;22.60;85.30
8882;DHT22;4477;48.736;9.176;2022-10-03T12:34:36;23.30;79.20
8882;DHT22;4477;48.736;9.176;2022-10-03T12:40:04;23.40;79.00
8882;DHT22;4477;48.736;9.176;2022-10-03T12:42:40;23.90;76.20
8882;DHT22;4477;48.736;9.176;2022-10-03T12:45:15;23.60;73.60
8882;DHT22;4477;48.736;9.176;2022-10-03T12:47:56;23.20;74.30
8882;DHT22;4477;48.736;9.176;2022-10-03T12:50:38;23.30;76.90
8882;DHT22;4477;48.736;9.176;2022-10-03T12:53:32;24.20;75.20
8882;DHT22;4477;48.736;9.176;2022-10-03T12:56:15;23.90;69.20
8882;DHT22;4477;48.736;9.176;2022-10-03T12:58:57;23.00;72.30
8882;DHT22;4477;48.736;9.176;2022-10-03T13:01:42;21.60;73.70
8882;DHT22;4477;48.736;9.176;2022-10-03T13:04:18;20.40;79.60
8882;DHT22;4477;48.736;9.176;2022-10-03T13:07:02;19.20;83.70
8882;DHT22;4477;48.736;9.176;2022-10-03T13:18:28;16.90;93.20
8882;DHT22;4477;48.736;9.176;2022-10-03T13:21:02;18.50;90.10
8882;DHT22;4477;48.736;9.176;2022-10-03T13:23:41;18.90;89.40
8882;DHT22;4477;48.736;9.176;2022-10-03T13:26:15;18.70;88.90
8882;DHT22;4477;48.736;9.176;2022-10-03T13:29:11;18.20;89.60
8882;DHT22;4477;48.736;9.176;2022-10-03T13:31:53;17.90;90.00
8882;DHT22;4477;48.736;9.176;2022-10-03T13:34:25;18.00;90.70
8882;DHT22;4477;48.736;9.176;2022-10-03T13:36:58;19.20;90.20
8882;DHT22;4477;48.736;9.176;2022-10-03T13:39:43;20.60;90.50
8882;DHT22;4477;48.736;9.176;2022-10-03T13:42:15;22.10;82.60
8882;DHT22;4477;48.736;9.176;2022-10-03T13:44:47;23.20;77.40
8882;DHT22;4477;48.736;9.176;2022-10-03T13:47:33;22.80;72.30
8882;DHT22;4477;48.736;9.176;2022-10-03T13:50:02;21.70;75.90
8882;DHT22;4477;48.736;9.176;2022-10-03T13:52:38;20.20;78.60
8882;DHT22;4477;48.736;9.176;2022-10-03T13:55:22;19.20;84.50
8882;DHT22;4477;48.736;9.176;2022-10-03T13:58:14;18.20;84.70
8882;DHT22;4477;48.736;9.176;2022-10-03T14:03:25;17.10;91.90
8882;DHT22;4477;48.736;9.176;2022-10-03T14:06:11;17.10;91.40
8882;DHT22;4477;48.736;9.176;2022-10-03T14:09:02;17.70;93.40
8882;DHT22;4477;48.736;9.176;2022-10-03T14:11:39;19.20;88.40
8882;DHT22;4477;48.736;9.176;2022-10-03T14:14:28;20.50;84.70
8882;DHT22;4477;48.736;9.176;2022-10-03T14:17:06;21.10;77.90
8882;DHT22;4477;48.736;9.176;2022-10-03T14:19:42;21.50;81.20
8882;DHT22;4477;48.736;9.176;2022-10-03T14:22:27;21.10;76.60
8882;DHT22;4477;48.736;9.176;2022-10-03T14:25:16;21.30;77.80
8882;DHT22;4477;48.736;9.176;2022-10-03T14:27:56;21.30;77.90
8882;DHT22;4477;48.736;9.176;2022-10-03T14:30:33;21.80;80.00
8882;DHT22;4477;48.736;9.176;2022-10-03T14:33:13;22.20;73.80
8882;DHT22;4477;48.736;9.176;2022-10-03T14:35:52;21.80;72.50
8882;DHT22;4477;48.736;9.176;2022-10-03T14:38:40;21.80;75.30
8882;DHT22;4477;48.736;9.176;2022-10-03T14:41:32;21.90;72.30
8882;DHT22;4477;48.736;9.176;2022-10-03T14:44:07;22.70;73.00
8882;DHT22;4477;48.736;9.176;2022-10-03T14:46:41;22.20;69.80
8882;DHT22;4477;48.736;9.176;2022-10-03T14:49:16;21.40;76.00
8882;DHT22;4477;48.736;9.176;2022-10-03T14:51:48;20.80;70.10
8882;DHT22;4477;48.736;9.176;2022-10-03T14:54:18;20.50;77.40
8882;DHT22;4477;48.736;9.176;2022-10-03T14:56:47;20.30;75.30
8882;DHT22;4477;48.736;9.176;2022-10-03T14:59:20;20.50;77.60
8882;DHT22;4477;48.736;9.176;2022-10-03T15:01:49;21.20;75.90
8882;DHT22;4477;48.736;9.176;2022-10-03T15:04:25;22.00;69.00
8882;DHT22;4477;48.736;9.176;2022-10-03T15:06:54;22.10;69.20
8882;DHT22;4477;48.736;9.176;2022-10-03T15:09:24;21.80;70.50
8882;DHT22;4477;48.736;9.176;2022-10-03T15:12:00;22.00;69.70
8882;DHT22;4477;48.736;9.176;2022-10-03T15:14:33;21.70;69.30
8882;DHT22;4477;48.736;9.176;2022-10-03T15:17:03;21.30;71.20
8882;DHT22;4477;48.736;9.176;2022-10-03T15:19:36;21.10;68.70
8882;DHT22;4477;48.736;9.176;2022-10-03T15:22:16;20.90;72.40
8882;DHT22;4477;48.736;9.176;2022-10-03T15:24:45;20.70;73.70
8882;DHT22;4477;48.736;9.176;2022-10-03T15:27:17;20.20;75.60
8882;DHT22;4477;48.736;9.176;2022-10-03T15:29:51;19.90;73.30
8882;DHT22;4477;48.736;9.176;2022-10-03T15:32:22;19.60;76.70
8882;DHT22;4477;48.736;9.176;2022-10-03T15:34:55;19.40;74.00
8882;DHT22;4477;48.736;9.176;2022-10-03T15:37:27;19.30;73.20
8882;DHT22;4477;48.736;9.176;2022-10-03T15:40:02;19.70;75.60
8882;DHT22;4477;48.736;9.176;2022-10-03T15:42:30;20.50;70.10
8882;DHT22;4477;48.736;9.176;2022-10-03T15:45:03;20.60;69.50
8882;DHT22;4477;48.736;9.176;2022-10-03T15:47:32;19.70;73.50
8882;DHT22;4477;48.736;9.176;2022-10-03T15:50:02;18.90;74.70
8882;DHT22;4477;48.736;9.176;2022-10-03T15:52:35;18.20;75.70
8882;DHT22;4477;48.736;9.176;2022-10-03T15:55:06;17.50;80.70
8882;DHT22;4477;48.736;9.176;2022-10-03T15:57:37;16.90;86.30
8882;DHT22;4477;48.736;9.176;2022-10-03T16:00:07;16.50;85.10
8882;DHT22;4477;48.736;9.176;2022-10-03T16:02:48;16.00;89.00
8882;DHT22;4477;48.736;9.176;2022-10-03T16:05:20;15.80;90.40
8882;DHT22;4477;48.736;9.176;2022-10-03T16:07:55;15.40;90.60
8882;DHT22;4477;48.736;9.176;2022-10-03T16:10:26;15.00;92.40
8882;DHT22;4477;48.736;9.176;2022-10-03T16:13:01;14.60;95.50
8882;DHT22;4477;48.736;9.176;2022-10-03T16:15:43;14.20;95.00
8882;DHT22;4477;48.736;9.176;2022-10-03T16:18:37;13.90;96.50
8882;DHT22;4477;48.736;9.176;2022-10-03T16:21:11;13.60;99.90
8882;DHT22;4477;48.736;9.176;2022-10-03T16:23:40;13.30;99.90
8882;DHT22;4477;48.736;9.176;2022-10-03T16:26:17;13.00;99.90
8882;DHT22;4477;48.736;9.176;2022-10-03T16:28:49;12.70;99.90
8882;DHT22;4477;48.736;9.176;2022-10-03T16:31:21;12.40;99.90
8882;DHT22;4477;48.736;9.176;2022-10-03T16:33:55;12.20;99.90
8882;DHT22;4477;48.736;9.176;2022-10-03T16:36:24;11.90;99.90
8882;DHT22;4477;48.736;9.176;2022-10-03T16:38:53;11.80;99.90
8882;DHT22;4477;48.736;9.176;2022-10-03T16:41:24;11.60;99.90
8882;DHT22;4477;48.736;9.176;2022-10-03T16:43:56;11.40;99.90
8882;DHT22;4477;48.736;9.176;2022-10-03T16:46:27;11.30;99.90
8882;DHT22;4477;48.736;9.176;2022-10-03T16:48:57;11.20;99.90
8882;DHT22;4477;48.736;9.176;2022-10-03T16:51:59;11.00;99.90
8882;DHT22;4477;48.736;9.176;2022-10-03T16:54:27;10.70;99.90
8882;DHT22;4477;48.736;9.176;2022-10-03T16:56:59;10.60;99.90
8882;DHT22;4477;48.736;9.176;2022-10-03T16:59:28;10.30;99.90
8882;DHT22;4477;48.736;9.176;2022-10-03T17:02:02;10.10;99.90
8882;DHT22;4477;48.736;9.176;2022-10-03T17:04:32;9.90;99.90
8882;DHT22;4477;48.736;9.176;2022-10-03T17:07:02;9.60;99.90
8882;DHT22;4477;48.736;9.176;2022-10-03T17:09:36;9.50;99.90
8882;DHT22;4477;48.736;9.176;2022-10-03T17:12:11;9.30;99.90
8882;DHT22;4477;48.736;9.176;2022-10-03T17:14:41;9.20;99.90
8882;DHT22;4477;48.736;9.176;2022-10-03T17:17:21;9.00;99.90
8882;DHT22;4477;48.736;9.176;2022-10-03T17:19:57;8.90;99.90
8882;DHT22;4477;48.736;9.176;2022-10-03T17:22:28;8.70;99.90
8882;DHT22;4477;48.736;9.176;2022-10-03T17:25:00;8.60;99.90
8882;DHT22;4477;48.736;9.176;2022-10-03T17:27:31;8.40;99.90
8882;DHT22;4477;48.736;9.176;2022-10-03T17:30:03;8.30;99.90
8882;DHT22;4477;48.736;9.176;2022-10-03T17:32:35;8.20;99.90
8882;DHT22;4477;48.736;9.176;2022-10-03T17:35:10;8.20;99.90
8882;DHT22;4477;48.736;9.176;2022-10-03T17:38:17;8.10;99.90
8882;DHT22;4477;48.736;9.176;2022-10-03T17:40:59;8.00;99.90
8882;DHT22;4477;48.736;9.176;2022-10-03T17:43:33;7.90;99.90
8882;DHT22;4477;48.736;9.176;2022-10-03T17:46:04;7.80;99.90
8882;DHT22;4477;48.736;9.176;2022-10-03T17:48:38;7.70;99.90
8882;DHT22;4477;48.736;9.176;2022-10-03T17:51:30;7.60;99.90
8882;DHT22;4477;48.736;9.176;2022-10-03T17:54:01;7.60;99.90
8882;DHT22;4477;48.736;9.176;2022-10-03T17:56:31;7.50;99.90
8882;DHT22;4477;48.736;9.176;2022-10-03T17:59:03;7.40;99.90
8882;DHT22;4477;48.736;9.176;2022-10-03T18:01:35;7.30;99.90
8882;DHT22;4477;48.736;9.176;2022-10-03T18:04:14;7.30;99.90
8882;DHT22;4477;48.736;9.176;2022-10-03T18:06:45;7.20;99.90
8882;DHT22;4477;48.736;9.176;2022-10-03T18:09:27;7.20;99.90
8882;DHT22;4477;48.736;9.176;2022-10-03T18:12:03;7.20;99.90
8882;DHT22;4477;48.736;9.176;2022-10-03T18:14:43;7.20;99.90
8882;DHT22;4477;48.736;9.176;2022-10-03T18:17:15;7.10;99.90
8882;DHT22;4477;48.736;9.176;2022-10-03T18:20:04;7.00;99.90
8882;DHT22;4477;48.736;9.176;2022-10-03T18:22:38;7.00;99.90
8882;DHT22;4477;48.736;9.176;2022-10-03T18:25:15;7.00;99.90
8882;DHT22;4477;48.736;9.176;2022-10-03T18:28:10;6.90;99.90
8882;DHT22;4477;48.736;9.176;2022-10-03T18:30:45;6.80;99.90
8882;DHT22;4477;48.736;9.176;2022-10-03T18:33:16;6.80;99.90
8882;DHT22;4477;48.736;9.176;2022-10-03T18:35:47;6.80;99.90
8882;DHT22;4477;48.736;9.176;2022-10-03T18:38:18;6.60;99.90
8882;DHT22;4477;48.736;9.176;2022-10-03T18:40:49;6.60;99.90
8882;DHT22;4477;48.736;9.176;2022-10-03T18:43:32;6.40;99.90
8882;DHT22;4477;48.736;9.176;2022-10-03T18:46:08;6.40;99.90
8882;DHT22;4477;48.736;9.176;2022-10-03T18:48:43;6.30;99.90
8882;DHT22;4477;48.736;9.176;2022-10-03T18:51:16;6.30;99.90
8882;DHT22;4477;48.736;9.176;2022-10-03T18:53:53;6.20;99.90
8882;DHT22;4477;48.736;9.176;2022-10-03T18:56:23;6.20;99.90
8882;DHT22;4477;48.736;9.176;2022-10-03T18:59:04;6.20;99.90
8882;DHT22;4477;48.736;9.176;2022-10-03T19:01:41;6.40;99.90
8882;DHT22;4477;48.736;9.176;2022-10-03T19:04:11;6.50;99.90
8882;DHT22;4477;48.736;9.176;2022-10-03T19:06:44;6.40;99.90
8882;DHT22;4477;48.736;9.176;2022-10-03T19:09:16;6.30;99.90
8882;DHT22;4477;48.736;9.176;2022-10-03T19:11:48;6.20;99.90
8882;DHT22;4477;48.736;9.176;2022-10-03T19:14:21;6.00;99.90
8882;DHT22;4477;48.736;9.176;2022-10-03T19:17:18;6.00;99.90
8882;DHT22;4477;48.736;9.176;2022-10-03T19:19:50;6.00;99.90
8882;DHT22;4477;48.736;9.176;2022-10-03T19:22:24;5.90;99.90
8882;DHT22;4477;48.736;9.176;2022-10-03T19:24:51;5.80;99.90
8882;DHT22;4477;48.736;9.176;2022-10-03T19:27:23;5.70;99.90
8882;DHT22;4477;48.736;9.176;2022-10-03T19:29:53;5.60;99.90
8882;DHT22;4477;48.736;9.176;2022-10-03T19:32:26;5.60;99.90
8882;DHT22;4477;48.736;9.176;2022-10-03T19:34:59;5.70;99.90
8882;DHT22;4477;48.736;9.176;2022-10-03T19:37:39;5.80;99.90
8882;DHT22;4477;48.736;9.176;2022-10-03T19:40:20;5.80;99.90
8882;DHT22;4477;48.736;9.176;2022-10-03T19:42:57;5.80;99.90
8882;DHT22;4477;48.736;9.176;2022-10-03T19:45:27;5.70;99.90
8882;DHT22;4477;48.736;9.176;2022-10-03T19:47:57;5.50;99.90
8882;DHT22;4477;48.736;9.176;2022-10-03T19:50:27;5.40;99.90
8882;DHT22;4477;48.736;9.176;2022-10-03T19:52:57;5.40;99.90
8882;DHT22;4477;48.736;9.176;2022-10-03T19:55:30;5.30;99.90
8882;DHT22;4477;48.736;9.176;2022-10-03T19:58:00;5.30;99.90
8882;DHT22;4477;48.736;9.176;2022-10-03T20:00:30;5.20;99.90
8882;DHT22;4477;48.736;9.176;2022-10-03T20:03:06;5.30;99.90
8882;DHT22;4477;48.736;9.176;2022-10-03T20:05:40;5.20;99.90
8882;DHT22;4477;48.736;9.176;2022-10-03T20:08:18;5.20;99.90
8882;DHT22;4477;48.736;9.176;2022-10-03T20:11:05;5.30;99.90
8882;DHT22;4477;48.736;9.176;2022-10-03T20:13:41;5.20;99.90
8882;DHT22;4477;48.736;9.176;2022-10-03T20:16:12;5.10;99.90
8882;DHT22;4477;48.736;9.176;2022-10-03T20:18:40;5.10;99.90
8882;DHT22;4477;48.736;9.176;2022-10-03T20:21:09;5.00;99.90
8882;DHT22;4477;48.736;9.176;2022-10-03T20:23:40;5.00;99.90
8882;DHT22;4477;48.736;9.176;2022-10-03T20:26:16;4.90;99.90
8882;DHT22;4477;48.736;9.176;2022-10-03T20:29:05;5.00;99.90
8882;DHT22;4477;48.736;9.176;2022-10-03T20:31:37;5.00;99.90
8882;DHT22;4477;48.736;9.176;2022-10-03T20:34:11;5.00;99.90
8882;DHT22;4477;48.736;9.176;2022-10-03T20:36:41;4.90;99.90
8882;DHT22;4477;48.736;9.176;2022-10-03T20:39:14;4.90;99.90
8882;DHT22;4477;48.736;9.176;2022-10-03T20:41:58;4.90;99.90
8882;DHT22;4477;48.736;9.176;2022-10-03T20:44:49;4.90;99.90
8882;DHT22;4477;48.736;9.176;2022-10-03T20:50:17;4.80;99.90
8882;DHT22;4477;48.736;9.176;2022-10-03T20:52:48;4.80;99.90
8882;DHT22;4477;48.736;9.176;2022-10-03T20:55:19;4.90;99.90
8882;DHT22;4477;48.736;9.176;2022-10-03T20:57:53;5.10;99.90
8882;DHT22;4477;48.736;9.176;2022-10-03T21:00:24;5.20;99.90
8882;DHT22;4477;48.736;9.176;2022-10-03T21:02:55;5.20;99.90
8882;DHT22;4477;48.736;9.176;2022-10-03T21:05:24;5.10;99.90
8882;DHT22;4477;48.736;9.176;2022-10-03T21:07:54;5.10;99.90
8882;DHT22;4477;48.736;9.176;2022-10-03T21:10:27;5.10;99.90
8882;DHT22;4477;48.736;9.176;2022-10-03T21:12:58;5.00;99.90
8882;DHT22;4477;48.736;9.176;2022-10-03T21:15:38;5.00;99.90